createdAt,value
2022-12-29T00:01:38.527Z,98193.19
2022-12-29T00:04:14.313Z,98189.41
2022-12-29T00:06:44.173Z,98193.19
2022-12-29T00:09:16.687Z,98185.41
2022-12-29T00:11:43.806Z,98182.16
2022-12-29T00:14:30.631Z,98185.41
2022-12-29T00:16:58.164Z,98177.00
2022-12-29T00:19:43.655Z,98175.63
2022-12-29T00:22:33.819Z,98174.53
2022-12-29T00:25:01.394Z,98175.34
2022-12-29T00:27:48.896Z,98170.50
2022-12-29T00:30:38.609Z,98164.28
2022-12-29T00:33:38.176Z,98164.81
2022-12-29T00:36:22.786Z,98167.97
2022-12-29T00:39:14.320Z,98163.66
2022-12-29T00:42:02.580Z,98158.47
2022-12-29T00:44:29.923Z,98161.97
2022-12-29T00:46:59.655Z,98158.19
2022-12-29T00:49:32.223Z,98153.06
2022-12-29T00:52:33.500Z,98159.81
2022-12-29T00:54:59.887Z,98147.13
2022-12-29T00:57:26.327Z,98149.75
2022-12-29T00:59:52.848Z,98154.88
2022-12-29T01:02:19.567Z,98156.41
2022-12-29T01:04:46.149Z,98143.47
2022-12-29T01:07:12.555Z,98156.97
2022-12-29T01:09:57.788Z,98150.97
2022-12-29T01:12:41.250Z,98163.91
2022-12-29T01:15:09.999Z,98162.81
2022-12-29T01:17:36.644Z,98156.56
2022-12-29T01:20:04.117Z,98156.28
2022-12-29T01:22:30.511Z,98163.81
2022-12-29T01:24:57.297Z,98163.50
2022-12-29T01:27:23.722Z,98170.00
2022-12-29T01:29:50.247Z,98171.59
2022-12-29T01:32:16.696Z,98170.25
2022-12-29T01:34:44.751Z,98171.84
2022-12-29T01:37:11.823Z,98158.91
2022-12-29T01:39:38.263Z,98164.31
2022-12-29T01:42:04.723Z,98169.72
2022-12-29T01:44:51.359Z,98163.81
2022-12-29T01:47:39.329Z,98163.81
2022-12-29T01:50:13.437Z,98157.09
2022-12-29T01:52:45.997Z,98176.19
2022-12-29T01:55:13.316Z,98161.59
2022-12-29T01:57:45.000Z,98162.66
2022-12-29T02:00:14.637Z,98162.06
2022-12-29T02:02:45.744Z,98157.72
2022-12-29T02:05:24.213Z,98155.53
2022-12-29T02:07:52.575Z,98153.38
2022-12-29T02:10:22.232Z,98153.88
2022-12-29T02:12:49.213Z,98144.41
2022-12-29T02:15:16.458Z,98139.00
2022-12-29T02:18:03.709Z,98136.56
2022-12-29T02:21:06.597Z,98143.59
2022-12-29T02:24:10.635Z,98130.34
2022-12-29T02:27:01.905Z,98128.66
2022-12-29T02:29:53.016Z,98138.56
2022-12-29T02:32:45.711Z,98132.56
2022-12-29T02:35:26.425Z,98129.00
2022-12-29T02:38:20.671Z,98124.84
2022-12-29T02:40:59.071Z,98128.50
2022-12-29T02:43:37.598Z,98124.06
2022-12-29T02:46:24.609Z,98123.97
2022-12-29T02:49:16.048Z,98116.97
2022-12-29T02:51:52.509Z,98116.47
2022-12-29T02:54:38.565Z,98115.94
2022-12-29T02:57:18.297Z,98119.72
2022-12-29T02:59:46.149Z,98120.81
2022-12-29T03:02:37.700Z,98114.91
2022-12-29T03:05:25.450Z,98113.31
2022-12-29T03:08:10.682Z,98109.00
2022-12-29T03:10:49.392Z,98112.28
2022-12-29T03:13:42.081Z,98112.81
2022-12-29T03:16:20.964Z,98120.38
2022-12-29T03:18:52.627Z,98112.28
2022-12-29T03:22:04.360Z,98113.88
2022-12-29T03:24:35.951Z,98107.41
2022-12-29T03:27:05.837Z,98107.41
2022-12-29T03:29:36.612Z,98100.31
2022-12-29T03:32:05.778Z,98096.78
2022-12-29T03:34:34.097Z,98089.50
2022-12-29T03:37:14.159Z,98090.28
2022-12-29T03:39:41.960Z,98090.59
2022-12-29T03:42:15.984Z,98095.69
2022-12-29T03:44:44.733Z,98091.91
2022-12-29T03:47:13.351Z,98079.72
2022-12-29T03:49:40.350Z,98071.97
2022-12-29T03:52:06.859Z,98082.09
2022-12-29T03:54:33.901Z,98064.72
2022-12-29T03:57:00.662Z,98066.25
2022-12-29T03:59:27.047Z,98064.91
2022-12-29T04:01:53.561Z,98079.16
2022-12-29T04:04:19.969Z,98076.88
2022-12-29T04:06:46.420Z,98072.50
2022-12-29T04:09:12.923Z,98081.69
2022-12-29T04:11:39.258Z,98076.88
2022-12-29T04:14:05.742Z,98073.66
2022-12-29T04:16:32.125Z,98070.16
2022-12-29T04:18:58.465Z,98082.34
2022-12-29T04:21:24.925Z,98086.88
2022-12-29T04:23:51.265Z,98095.53
2022-12-29T04:26:17.706Z,98097.56
2022-12-29T04:28:44.051Z,98096.38
2022-12-29T04:31:10.795Z,98097.19
2022-12-29T04:33:37.172Z,98092.00
2022-12-29T04:36:03.700Z,98090.59
2022-12-29T04:38:30.102Z,98096.81
2022-12-29T04:40:59.650Z,98093.50
2022-12-29T04:43:26.056Z,98080.28
2022-12-29T04:45:52.638Z,98081.66
2022-12-29T04:48:19.000Z,98087.16
2022-12-29T04:50:48.857Z,98094.09
2022-12-29T04:53:16.016Z,98094.63
2022-12-29T04:55:42.531Z,98093.50
2022-12-29T04:58:08.945Z,98092.72
2022-12-29T05:00:35.403Z,98103.72
2022-12-29T05:03:02.401Z,98097.13
2022-12-29T05:05:28.932Z,98098.47
2022-12-29T05:07:55.343Z,98093.13
2022-12-29T05:10:21.718Z,98082.00
2022-12-29T05:12:48.283Z,98074.38
2022-12-29T05:15:14.669Z,98080.41
2022-12-29T05:17:41.000Z,98072.19
2022-12-29T05:20:08.121Z,98077.00
2022-12-29T05:22:34.707Z,98074.19
2022-12-29T05:25:01.136Z,98075.50
2022-12-29T05:27:27.839Z,98072.78
2022-12-29T05:29:54.335Z,98065.97
2022-12-29T05:32:20.751Z,98058.94
2022-12-29T05:34:47.296Z,98060.13
2022-12-29T05:37:13.771Z,98066.16
2022-12-29T05:39:40.691Z,98090.03
2022-12-29T05:42:07.073Z,98078.09
2022-12-29T05:44:34.174Z,98066.16
2022-12-29T05:47:00.632Z,98062.97
2022-12-29T05:49:27.088Z,98056.13
2022-12-29T05:51:53.518Z,98057.16
2022-12-29T05:54:19.906Z,98057.34
2022-12-29T05:56:46.432Z,98060.75
2022-12-29T05:59:12.813Z,98065.84
2022-12-29T06:01:39.394Z,98063.56
2022-12-29T06:04:05.857Z,98054.84
2022-12-29T06:06:32.270Z,98062.84
2022-12-29T06:08:58.647Z,98054.63
2022-12-29T06:11:24.993Z,98044.19
2022-12-29T06:13:51.423Z,98025.44
2022-12-29T06:16:18.005Z,98028.06
2022-12-29T06:18:44.477Z,98024.66
2022-12-29T06:21:10.954Z,98039.31
2022-12-29T06:23:37.418Z,98037.00
2022-12-29T06:26:03.830Z,98043.47
2022-12-29T06:28:30.214Z,98050.31
2022-12-29T06:30:56.625Z,98050.81
2022-12-29T06:33:23.111Z,98058.94
2022-12-29T06:35:49.567Z,98050.94
2022-12-29T06:38:16.310Z,98060.97
2022-12-29T06:40:45.738Z,98055.03
2022-12-29T06:43:12.168Z,98054.84
2022-12-29T06:45:40.818Z,98059.84
2022-12-29T06:48:08.033Z,98055.31
2022-12-29T06:50:34.416Z,98057.31
2022-12-29T06:53:02.028Z,98044.19
2022-12-29T06:55:29.181Z,98048.09
2022-12-29T06:57:57.353Z,98048.19
2022-12-29T07:00:25.091Z,98051.00
2022-12-29T07:02:52.087Z,98052.19
2022-12-29T07:05:19.038Z,98053.59
2022-12-29T07:07:45.415Z,98063.09
2022-12-29T07:10:12.074Z,98061.47
2022-12-29T07:12:38.425Z,98058.47
2022-12-29T07:15:05.119Z,98059.56
2022-12-29T07:17:31.736Z,98065.72
2022-12-29T07:19:58.144Z,98056.19
2022-12-29T07:22:24.606Z,98056.97
2022-12-29T07:24:51.059Z,98051.06
2022-12-29T07:27:17.501Z,98058.09
2022-12-29T07:29:43.933Z,98053.19
2022-12-29T07:32:10.370Z,98055.09
2022-12-29T07:34:36.767Z,98054.81
2022-12-29T07:37:03.206Z,98057.81
2022-12-29T07:39:29.747Z,98062.13
2022-12-29T07:42:01.059Z,98068.91
2022-12-29T07:44:30.844Z,98058.09
2022-12-29T07:46:57.916Z,98069.94
2022-12-29T07:49:25.448Z,98072.03
2022-12-29T07:51:51.997Z,98075.84
2022-12-29T07:54:19.379Z,98072.56
2022-12-29T07:56:46.542Z,98077.16
2022-12-29T07:59:15.894Z,98075.75
2022-12-29T08:01:42.495Z,98077.59
2022-12-29T08:04:09.196Z,98077.19
2022-12-29T08:06:36.064Z,98080.81
2022-12-29T08:09:11.128Z,98086.81
2022-12-29T08:11:41.500Z,98086.72
2022-12-29T08:14:07.960Z,98092.63
2022-12-29T08:16:34.420Z,98099.56
2022-12-29T08:19:01.138Z,98103.19
2022-12-29T08:21:30.925Z,98103.69
2022-12-29T08:23:57.526Z,98102.28
2022-12-29T08:26:24.156Z,98100.13
2022-12-29T08:28:53.606Z,98095.50
2022-12-29T08:31:20.154Z,98097.09
2022-12-29T08:33:46.565Z,98087.38
2022-12-29T08:36:12.933Z,98100.00
2022-12-29T08:38:39.271Z,98096.06
2022-12-29T08:41:05.677Z,98103.09
2022-12-29T08:43:32.111Z,98094.56
2022-12-29T08:46:01.401Z,98089.97
2022-12-29T08:48:27.930Z,98082.44
2022-12-29T08:50:54.646Z,98089.97
2022-12-29T08:53:21.211Z,98091.84
2022-12-29T08:55:48.638Z,98090.56
2022-12-29T08:58:15.698Z,98093.28
2022-12-29T09:00:43.246Z,98102.28
2022-12-29T09:03:10.473Z,98106.00
2022-12-29T09:05:37.227Z,98098.38
2022-12-29T09:08:04.028Z,98108.63
2022-12-29T09:10:30.427Z,98115.13
2022-12-29T09:12:56.944Z,98120.94
2022-12-29T09:15:23.423Z,98122.22
2022-12-29T09:17:50.062Z,98125.44
2022-12-29T09:20:19.281Z,98138.97
2022-12-29T09:22:46.860Z,98130.34
2022-12-29T09:25:14.281Z,98132.59
2022-12-29T09:27:41.058Z,98131.16
2022-12-29T09:30:10.297Z,98126.53
2022-12-29T09:32:43.629Z,98132.59
2022-12-29T09:35:11.686Z,98134.97
2022-12-29T09:37:38.051Z,98136.00
2022-12-29T09:40:05.855Z,98134.75
2022-12-29T09:43:04.218Z,98131.03
2022-12-29T09:45:36.820Z,98136.34
2022-12-29T09:48:09.767Z,98125.88
2022-12-29T09:50:38.708Z,98122.91
2022-12-29T09:53:29.777Z,98127.78
2022-12-29T09:55:58.983Z,98131.19
2022-12-29T09:58:30.054Z,98127.91
2022-12-29T10:01:27.318Z,98124.00
2022-12-29T10:03:56.887Z,98131.06
2022-12-29T10:07:03.724Z,98123.03
2022-12-29T10:09:34.186Z,98122.66
2022-12-29T10:12:03.523Z,98128.53
2022-12-29T10:14:29.863Z,98124.22
2022-12-29T10:17:34.687Z,98121.78
2022-12-29T10:20:19.273Z,98123.41
2022-12-29T10:23:07.377Z,98133.34
2022-12-29T10:25:38.739Z,98133.22
2022-12-29T10:28:18.672Z,98132.91
2022-12-29T10:30:48.190Z,98135.13
2022-12-29T10:33:20.599Z,98139.06
2022-12-29T10:35:48.357Z,98140.19
2022-12-29T10:38:35.934Z,98137.16
2022-12-29T10:41:35.244Z,98129.69
2022-12-29T10:44:02.074Z,98128.09
2022-12-29T10:46:33.588Z,98118.34
2022-12-29T10:49:00.369Z,98119.47
2022-12-29T10:51:32.046Z,98119.47
2022-12-29T10:54:12.432Z,98121.44
2022-12-29T10:57:19.419Z,98130.22
2022-12-29T10:59:46.019Z,98122.03
2022-12-29T11:02:12.558Z,98124.19
2022-12-29T11:05:02.992Z,98119.31
2022-12-29T11:07:31.289Z,98127.00
2022-12-29T11:10:17.268Z,98124.50
2022-12-29T11:13:11.491Z,98115.81
2022-12-29T11:15:53.466Z,98110.25
2022-12-29T11:18:22.821Z,98121.91
2022-12-29T11:20:53.743Z,98123.19
2022-12-29T11:23:23.231Z,98130.09
2022-12-29T11:26:15.570Z,98124.50
2022-12-29T11:28:45.670Z,98121.94
2022-12-29T11:31:17.335Z,98112.31
2022-12-29T11:33:43.868Z,98115.69
2022-12-29T11:36:18.339Z,98117.28
2022-12-29T11:38:56.260Z,98128.03
2022-12-29T11:41:28.725Z,98120.97
2022-12-29T11:43:59.089Z,98119.38
2022-12-29T11:46:30.544Z,98121.25
2022-12-29T11:49:00.495Z,98114.69
2022-12-29T11:51:45.735Z,98130.34
2022-12-29T11:54:23.138Z,98136.09
2022-12-29T11:56:52.709Z,98134.97
2022-12-29T11:59:35.275Z,98147.22
2022-12-29T12:02:12.154Z,98151.50
2022-12-29T12:04:39.513Z,98139.91
2022-12-29T12:07:08.959Z,98148.94
2022-12-29T12:09:39.865Z,98151.94
2022-12-29T12:12:09.568Z,98154.28
2022-12-29T12:14:43.459Z,98155.78
2022-12-29T12:17:14.863Z,98159.44
2022-12-29T12:19:50.448Z,98150.00
2022-12-29T12:22:32.805Z,98138.84
2022-12-29T12:25:07.278Z,98135.31
2022-12-29T12:27:45.083Z,98139.31
2022-12-29T12:30:17.354Z,98127.03
2022-12-29T12:32:56.614Z,98133.91
2022-12-29T12:35:50.612Z,98137.72
2022-12-29T12:39:04.420Z,98129.00
2022-12-29T12:41:53.048Z,98112.16
2022-12-29T12:45:01.490Z,98110.44
2022-12-29T12:47:49.092Z,98106.94
2022-12-29T12:50:28.922Z,98108.84
2022-12-29T12:53:38.306Z,98103.78
2022-12-29T12:56:46.882Z,98105.78
2022-12-29T12:59:16.502Z,98107.09
2022-12-29T13:02:04.916Z,98110.13
2022-12-29T13:05:01.194Z,98106.56
2022-12-29T13:07:31.138Z,98097.66
2022-12-29T13:10:22.364Z,98107.13
2022-12-29T13:13:14.612Z,98090.22
2022-12-29T13:15:53.042Z,98095.66
2022-12-29T13:18:43.099Z,98098.97
2022-12-29T13:22:02.011Z,98087.97
2022-12-29T13:24:47.636Z,98087.34
2022-12-29T13:27:17.934Z,98091.47
2022-12-29T13:30:03.450Z,98081.38
2022-12-29T13:32:36.338Z,98083.06
2022-12-29T13:35:26.811Z,98094.22
2022-12-29T13:38:12.606Z,98089.88
2022-12-29T13:40:44.830Z,98080.25
2022-12-29T13:43:14.024Z,98080.88
2022-12-29T13:45:42.721Z,98080.06
2022-12-29T13:48:37.469Z,98084.69
2022-12-29T13:51:05.527Z,98080.38
2022-12-29T13:53:57.718Z,98092.34
2022-12-29T13:56:40.982Z,98084.53
2022-12-29T13:59:29.908Z,98087.56
2022-12-29T14:02:12.665Z,98085.75
2022-12-29T14:04:57.509Z,98092.28
2022-12-29T14:07:24.747Z,98093.41
2022-12-29T14:10:02.715Z,98089.56
2022-12-29T14:12:44.457Z,98096.41
2022-12-29T14:15:11.332Z,98092.41
2022-12-29T14:17:45.474Z,98098.47
2022-12-29T14:20:28.340Z,98090.34
2022-12-29T14:23:02.641Z,98103.13
2022-12-29T14:26:07.220Z,98102.28
2022-12-29T14:28:48.332Z,98101.47
2022-12-29T14:31:14.806Z,98103.91
2022-12-29T14:33:42.722Z,98096.25
2022-12-29T14:37:04.088Z,98097.53
2022-12-29T14:39:42.451Z,98103.75
2022-12-29T14:42:11.798Z,98105.19
2022-12-29T14:44:49.914Z,98100.19
2022-12-29T14:47:21.317Z,98106.38
2022-12-29T14:49:47.988Z,98105.38
2022-12-29T14:52:20.900Z,98101.19
2022-12-29T14:54:59.951Z,98105.44
2022-12-29T14:57:40.630Z,98096.03
2022-12-29T15:00:12.720Z,98089.81
2022-12-29T15:02:43.502Z,98086.56
2022-12-29T15:05:27.165Z,98098.25
2022-12-29T15:07:56.431Z,98093.63
2022-12-29T15:10:24.933Z,98096.03
2022-12-29T15:12:55.166Z,98102.75
2022-12-29T15:15:27.531Z,98093.81
2022-12-29T15:17:54.259Z,98083.06
2022-12-29T15:20:24.989Z,98084.59
2022-12-29T15:22:57.790Z,98087.47
2022-12-29T15:25:26.240Z,98085.03
2022-12-29T15:28:06.374Z,98088.38
2022-12-29T15:30:34.551Z,98091.09
2022-12-29T15:33:06.516Z,98095.88
2022-12-29T15:35:39.895Z,98103.13
2022-12-29T15:38:30.314Z,98103.91
2022-12-29T15:41:04.719Z,98108.53
2022-12-29T15:43:58.946Z,98117.78
2022-12-29T15:46:26.649Z,98138.28
2022-12-29T15:48:57.468Z,98181.75
2022-12-29T15:51:38.136Z,98174.84
2022-12-29T15:54:07.415Z,98174.34
2022-12-29T15:56:44.814Z,98198.06
2022-12-29T15:59:34.167Z,98194.81
2022-12-29T16:02:14.033Z,98200.28
2022-12-29T16:05:09.166Z,98191.34
2022-12-29T16:07:42.389Z,98190.09
2022-12-29T16:10:34.604Z,98187.50
2022-12-29T16:13:16.479Z,98185.88
2022-12-29T16:15:47.947Z,98186.88
2022-12-29T16:18:53.395Z,98193.91
2022-12-29T16:21:44.736Z,98199.84
2022-12-29T16:24:21.449Z,98196.34
2022-12-29T16:27:00.076Z,98201.75
2022-12-29T16:29:30.505Z,98188.47
2022-12-29T16:32:04.330Z,98204.22
2022-12-29T16:34:45.488Z,98205.84
2022-12-29T16:37:41.726Z,98201.81
2022-12-29T16:40:27.738Z,98196.72
2022-12-29T16:43:05.592Z,98196.19
2022-12-29T16:45:48.005Z,98209.22
2022-12-29T16:48:14.927Z,98204.91
2022-12-29T16:50:44.950Z,98215.25
2022-12-29T16:53:25.151Z,98209.28
2022-12-29T16:56:01.614Z,98208.31
2022-12-29T16:58:38.764Z,98220.50
2022-12-29T17:01:20.128Z,98234.34
2022-12-29T17:03:58.700Z,98225.09
2022-12-29T17:06:26.128Z,98227.31
2022-12-29T17:08:57.159Z,98237.63
2022-12-29T17:11:44.278Z,98240.13
2022-12-29T17:14:24.572Z,98238.28
2022-12-29T17:16:56.544Z,98233.47
2022-12-29T17:19:46.470Z,98239.47
2022-12-29T17:22:26.401Z,98240.84
2022-12-29T17:25:31.168Z,98235.72
2022-12-29T17:28:33.600Z,98239.03
2022-12-29T17:31:09.921Z,98244.44
2022-12-29T17:33:52.917Z,98241.75
2022-12-29T17:39:17.872Z,98244.50
2022-12-29T17:41:46.383Z,98251.03
2022-12-29T17:44:21.520Z,98246.69
2022-12-29T17:46:49.299Z,98252.41
2022-12-29T17:49:19.160Z,98265.13
2022-12-29T17:51:48.219Z,98260.81
2022-12-29T17:54:33.617Z,98258.41
2022-12-29T17:57:12.904Z,98250.59
2022-12-29T17:59:44.816Z,98241.66
2022-12-29T18:02:35.358Z,98246.53
2022-12-29T18:05:08.917Z,98251.16
2022-12-29T18:07:36.259Z,98261.97
2022-12-29T18:10:07.498Z,98261.47
2022-12-29T18:12:45.933Z,98257.16
2022-12-29T18:15:30.435Z,98254.44
2022-12-29T18:18:08.909Z,98258.25
2022-12-29T18:20:35.545Z,98259.31
2022-12-29T18:23:01.997Z,98254.44
2022-12-29T18:25:41.332Z,98249.59
2022-12-29T18:28:07.701Z,98251.31
2022-12-29T18:30:35.970Z,98258.38
2022-12-29T18:33:02.481Z,98256.25
2022-12-29T18:35:37.468Z,98256.81
2022-12-29T18:38:05.945Z,98262.81
2022-12-29T18:40:36.533Z,98267.69
2022-12-29T18:43:03.841Z,98271.19
2022-12-29T18:45:32.915Z,98262.28
2022-12-29T18:48:00.368Z,98263.38
2022-12-29T18:50:26.932Z,98265.00
2022-12-29T18:52:53.870Z,98262.28
2022-12-29T18:55:24.253Z,98264.19
2022-12-29T18:57:51.593Z,98262.59
2022-12-29T19:00:20.634Z,98252.06
2022-12-29T19:02:48.946Z,98268.56
2022-12-29T19:05:25.671Z,98273.19
2022-12-29T19:07:52.913Z,98287.78
2022-12-29T19:10:20.548Z,98275.34
2022-12-29T19:12:47.531Z,98288.88
2022-12-29T19:15:24.344Z,98288.34
2022-12-29T19:18:16.545Z,98284.59
2022-12-29T19:20:43.667Z,98287.09
2022-12-29T19:23:20.278Z,98290.09
2022-12-29T19:25:51.618Z,98290.66
2022-12-29T19:28:27.482Z,98287.44
2022-12-29T19:31:01.286Z,98283.94
2022-12-29T19:33:34.716Z,98286.38
2022-12-29T19:36:08.104Z,98287.78
2022-12-29T19:38:43.141Z,98286.16
2022-12-29T19:41:13.833Z,98291.31
2022-12-29T19:43:41.214Z,98283.81
2022-12-29T19:46:10.833Z,98273.28
2022-12-29T19:48:43.772Z,98278.44
2022-12-29T19:51:17.543Z,98276.03
2022-12-29T19:53:46.863Z,98279.03
2022-12-29T19:56:15.061Z,98271.22
2022-12-29T19:58:47.152Z,98291.19
2022-12-29T20:01:20.955Z,98285.00
2022-12-29T20:03:49.636Z,98283.38
2022-12-29T20:06:16.897Z,98287.19
2022-12-29T20:08:45.417Z,98283.97
2022-12-29T20:11:16.312Z,98283.44
2022-12-29T20:13:44.131Z,98286.41
2022-12-29T20:16:24.196Z,98292.13
2022-12-29T20:18:51.000Z,98292.13
2022-12-29T20:21:20.487Z,98298.09
2022-12-29T20:23:47.531Z,98303.50
2022-12-29T20:26:16.835Z,98301.88
2022-12-29T20:28:43.413Z,98303.75
2022-12-29T20:31:23.416Z,98308.34
2022-12-29T20:33:50.220Z,98315.91
2022-12-29T20:36:23.545Z,98309.41
2022-12-29T20:38:51.730Z,98311.31
2022-12-29T20:41:19.088Z,98312.13
2022-12-29T20:43:45.681Z,98317.81
2022-12-29T20:46:18.136Z,98326.72
2022-12-29T20:48:47.691Z,98329.41
2022-12-29T20:51:14.292Z,98324.03
2022-12-29T20:53:40.771Z,98320.81
2022-12-29T20:56:20.419Z,98329.97
2022-12-29T20:59:17.532Z,98337.56
2022-12-29T21:01:34.231Z,98341.94
2022-12-29T21:04:00.937Z,98342.19
2022-12-29T21:06:27.764Z,98345.47
2022-12-29T21:08:55.028Z,98352.25
2022-12-29T21:11:22.501Z,98355.19
2022-12-29T21:13:49.219Z,98359.28
2022-12-29T21:16:16.232Z,98362.56
2022-12-29T21:18:42.872Z,98353.91
2022-12-29T21:21:18.495Z,98357.19
2022-12-29T21:23:44.989Z,98346.69
2022-12-29T21:26:14.940Z,98348.81
2022-12-29T21:28:41.609Z,98349.13
2022-12-29T21:31:32.848Z,98358.31
2022-12-29T21:34:01.493Z,98361.56
2022-12-29T21:36:29.402Z,98361.56
2022-12-29T21:38:58.157Z,98359.69
2022-12-29T21:41:25.025Z,98346.44
2022-12-29T21:44:11.494Z,98347.53
2022-12-29T21:46:40.154Z,98357.53
2022-12-29T21:49:07.304Z,98354.31
2022-12-29T21:51:54.103Z,98346.50
2022-12-29T21:54:44.821Z,98360.25
2022-12-29T21:57:17.974Z,98342.16
2022-12-29T22:00:06.065Z,98350.25
2022-12-29T22:02:50.988Z,98339.47
2022-12-29T22:05:36.200Z,98341.38
2022-12-29T22:08:21.400Z,98341.09
2022-12-29T22:11:07.224Z,98347.56
2022-12-29T22:13:36.299Z,98363.75
2022-12-29T22:16:04.389Z,98380.53
2022-12-29T22:18:31.502Z,98383.22
2022-12-29T22:20:58.386Z,98381.59
2022-12-29T22:23:25.815Z,98383.78
2022-12-29T22:25:52.780Z,98391.88
2022-12-29T22:28:22.675Z,98396.72
2022-12-29T22:30:50.753Z,98404.81
2022-12-29T22:33:18.018Z,98409.94
2022-12-29T22:35:45.911Z,98407.53
2022-12-29T22:38:13.425Z,98404.03
2022-12-29T22:40:44.335Z,98415.09
2022-12-29T22:43:14.382Z,98424.00
2022-12-29T22:45:44.669Z,98425.38
2022-12-29T22:48:11.489Z,98442.63
2022-12-29T22:50:40.491Z,98444.81
2022-12-29T22:53:07.332Z,98441.59
2022-12-29T22:55:34.439Z,98453.47
2022-12-29T22:58:02.822Z,98469.66
2022-12-29T23:00:30.182Z,98456.16
2022-12-29T23:02:59.726Z,98455.59
2022-12-29T23:05:26.774Z,98457.78
2022-12-29T23:07:53.452Z,98460.75
2022-12-29T23:10:29.602Z,98465.34
2022-12-29T23:12:56.768Z,98463.47
2022-12-29T23:15:23.781Z,98462.66
2022-12-29T23:17:50.206Z,98474.53
2022-12-29T23:20:16.688Z,98471.84
2022-12-29T23:22:43.035Z,98476.44
2022-12-29T23:25:09.730Z,98481.00
2022-12-29T23:27:36.117Z,98481.81
2022-12-29T23:30:02.646Z,98483.72
2022-12-29T23:32:29.052Z,98494.50
2022-12-29T23:34:55.513Z,98493.41
2022-12-29T23:37:21.892Z,98498.81
2022-12-29T23:39:48.297Z,98502.59
2022-12-29T23:42:14.870Z,98489.34
2022-12-29T23:44:41.226Z,98492.34
2022-12-29T23:47:07.696Z,98503.13
2022-12-29T23:49:34.062Z,98504.22
2022-12-29T23:52:00.467Z,98503.69
2022-12-29T23:54:26.867Z,98500.44
2022-12-29T23:56:53.204Z,98498.81
2022-12-29T23:59:19.655Z,98498.31
